createdAt,value
2022-10-25T00:02:21.799Z,26.30
2022-10-25T00:04:50.281Z,26.30
2022-10-25T00:07:18.455Z,26.40
2022-10-25T00:09:46.589Z,26.30
2022-10-25T00:12:14.933Z,26.30
2022-10-25T00:14:42.978Z,26.30
2022-10-25T00:17:11.169Z,26.30
2022-10-25T00:19:39.491Z,26.30
2022-10-25T00:22:07.586Z,26.30
2022-10-25T00:24:35.757Z,26.30
2022-10-25T00:27:04.011Z,26.40
2022-10-25T00:29:32.328Z,26.30
2022-10-25T00:32:00.501Z,26.40
2022-10-25T00:34:28.833Z,26.40
2022-10-25T00:36:56.891Z,26.30
2022-10-25T00:39:25.023Z,26.30
2022-10-25T00:41:53.270Z,26.30
2022-10-25T00:44:39.669Z,26.30
2022-10-25T00:47:23.336Z,26.30
2022-10-25T00:50:03.683Z,26.30
2022-10-25T00:52:36.419Z,26.30
2022-10-25T00:55:08.071Z,26.30
2022-10-25T00:57:46.447Z,26.20
2022-10-25T01:00:15.635Z,26.20
2022-10-25T01:02:43.882Z,26.20
2022-10-25T01:05:12.767Z,26.20
2022-10-25T01:07:40.936Z,26.10
2022-10-25T01:10:09.301Z,26.10
2022-10-25T01:12:37.554Z,26.10
2022-10-25T01:15:06.573Z,26.10
2022-10-25T01:17:53.145Z,26.20
2022-10-25T01:20:52.112Z,26.20
2022-10-25T01:23:47.544Z,26.20
2022-10-25T01:26:46.345Z,26.10
2022-10-25T01:29:23.363Z,26.10
2022-10-25T01:31:54.708Z,26.00
2022-10-25T01:34:32.022Z,26.10
2022-10-25T01:37:12.838Z,26.10
2022-10-25T01:39:57.968Z,26.00
2022-10-25T01:42:50.815Z,26.10
2022-10-25T01:45:24.875Z,26.00
2022-10-25T01:48:13.617Z,26.00
2022-10-25T01:50:45.586Z,26.00
2022-10-25T01:53:13.840Z,26.00
2022-10-25T01:55:54.818Z,26.00
2022-10-25T01:58:38.145Z,26.00
2022-10-25T02:01:12.285Z,26.10
2022-10-25T02:03:47.183Z,26.00
2022-10-25T02:06:36.622Z,26.00
2022-10-25T02:09:14.854Z,25.90
2022-10-25T02:11:42.977Z,25.80
2022-10-25T02:14:38.144Z,25.80
2022-10-25T02:17:20.279Z,25.80
2022-10-25T02:19:52.714Z,25.80
2022-10-25T02:22:24.582Z,25.80
2022-10-25T02:24:56.734Z,25.80
2022-10-25T02:27:25.064Z,25.80
2022-10-25T02:29:55.333Z,25.80
2022-10-25T02:32:23.717Z,25.80
2022-10-25T02:34:52.162Z,25.80
2022-10-25T02:37:20.472Z,25.80
2022-10-25T02:39:49.695Z,25.80
2022-10-25T02:42:18.052Z,25.80
2022-10-25T02:44:46.328Z,25.80
2022-10-25T02:47:14.343Z,25.80
2022-10-25T02:49:42.587Z,25.90
2022-10-25T02:52:10.631Z,25.90
2022-10-25T02:54:38.865Z,25.80
2022-10-25T02:57:07.105Z,25.80
2022-10-25T02:59:35.335Z,25.90
2022-10-25T03:02:03.674Z,25.80
2022-10-25T03:04:31.850Z,25.80
2022-10-25T03:07:00.440Z,25.80
2022-10-25T03:09:28.581Z,25.80
2022-10-25T03:11:56.559Z,25.80
2022-10-25T03:14:24.833Z,25.80
2022-10-25T03:16:52.961Z,25.80
2022-10-25T03:19:21.104Z,25.80
2022-10-25T03:21:49.347Z,25.80
2022-10-25T03:24:17.426Z,25.80
2022-10-25T03:26:45.514Z,25.80
2022-10-25T03:29:13.643Z,25.70
2022-10-25T03:31:41.738Z,25.70
2022-10-25T03:34:09.724Z,25.70
2022-10-25T03:36:37.950Z,25.60
2022-10-25T03:39:06.146Z,25.70
2022-10-25T03:41:34.341Z,25.60
2022-10-25T03:44:02.367Z,25.60
2022-10-25T03:46:30.601Z,25.60
2022-10-25T03:48:59.063Z,25.60
2022-10-25T03:51:27.194Z,25.60
2022-10-25T03:53:55.379Z,25.60
2022-10-25T03:56:23.863Z,25.60
2022-10-25T03:58:52.074Z,25.60
2022-10-25T04:01:20.441Z,25.50
2022-10-25T04:03:48.651Z,25.50
2022-10-25T04:06:16.873Z,25.60
2022-10-25T04:08:44.980Z,25.60
2022-10-25T04:11:13.104Z,25.60
2022-10-25T04:13:41.224Z,25.60
2022-10-25T04:16:10.174Z,25.50
2022-10-25T04:18:38.257Z,25.50
2022-10-25T04:21:06.598Z,25.60
2022-10-25T04:23:34.744Z,25.50
2022-10-25T04:26:02.790Z,25.50
2022-10-25T04:28:31.019Z,25.50
2022-10-25T04:30:59.183Z,25.50
2022-10-25T04:33:27.355Z,25.50
2022-10-25T04:37:10.109Z,25.50
2022-10-25T04:39:38.359Z,25.50
2022-10-25T04:42:06.656Z,25.50
2022-10-25T04:44:34.772Z,25.40
2022-10-25T04:47:02.952Z,25.50
2022-10-25T04:49:31.052Z,25.50
2022-10-25T04:51:59.310Z,25.50
2022-10-25T04:54:27.749Z,25.50
2022-10-25T04:56:55.811Z,25.50
2022-10-25T04:59:24.007Z,25.50
2022-10-25T05:04:25.111Z,25.50
2022-10-25T05:06:53.246Z,25.50
2022-10-25T05:09:21.504Z,25.50
2022-10-25T05:11:49.502Z,25.50
2022-10-25T05:14:17.750Z,25.40
2022-10-25T05:16:45.764Z,25.40
2022-10-25T05:19:13.894Z,25.40
2022-10-25T05:21:42.083Z,25.40
2022-10-25T05:24:10.190Z,25.40
2022-10-25T05:26:38.364Z,25.40
2022-10-25T05:29:10.172Z,25.40
2022-10-25T05:31:40.537Z,25.40
2022-10-25T05:34:10.240Z,25.40
2022-10-25T05:36:38.726Z,25.40
2022-10-25T05:39:06.927Z,25.40
2022-10-25T05:41:37.194Z,25.40
2022-10-25T05:44:06.586Z,25.40
2022-10-25T05:46:34.765Z,25.40
2022-10-25T05:49:02.967Z,25.40
2022-10-25T05:51:35.853Z,25.40
2022-10-25T05:56:49.834Z,25.30
2022-10-25T05:59:18.031Z,25.30
2022-10-25T06:01:47.446Z,25.40
2022-10-25T06:04:16.873Z,25.40
2022-10-25T06:06:47.248Z,25.40
2022-10-25T06:09:15.470Z,25.30
2022-10-25T06:11:43.699Z,25.30
2022-10-25T06:14:12.073Z,25.10
2022-10-25T06:16:40.325Z,25.10
2022-10-25T06:19:09.591Z,25.10
2022-10-25T06:21:38.064Z,25.10
2022-10-25T06:24:06.671Z,25.20
2022-10-25T06:26:34.898Z,25.10
2022-10-25T06:29:04.653Z,25.20
2022-10-25T06:31:33.592Z,25.10
2022-10-25T06:34:02.997Z,25.10
2022-10-25T06:36:32.059Z,25.20
2022-10-25T06:39:05.406Z,25.20
2022-10-25T06:41:35.961Z,25.20
2022-10-25T06:44:06.319Z,25.20
2022-10-25T06:47:04.336Z,25.20
2022-10-25T06:49:27.072Z,25.30
2022-10-25T06:51:55.126Z,25.20
2022-10-25T06:54:23.575Z,25.20
2022-10-25T06:56:51.792Z,25.20
2022-10-25T06:59:19.798Z,25.20
2022-10-25T07:01:48.137Z,25.20
2022-10-25T07:04:16.886Z,25.20
2022-10-25T07:06:44.940Z,25.20
2022-10-25T07:09:13.284Z,25.20
2022-10-25T07:11:41.833Z,25.30
2022-10-25T07:14:10.190Z,25.30
2022-10-25T07:16:38.437Z,25.20
2022-10-25T07:19:06.622Z,25.20
2022-10-25T07:21:34.860Z,25.30
2022-10-25T07:24:03.606Z,25.30
2022-10-25T07:26:34.557Z,25.30
2022-10-25T07:29:04.426Z,25.30
2022-10-25T07:31:35.531Z,25.30
2022-10-25T07:34:05.831Z,25.30
2022-10-25T07:36:34.534Z,25.40
2022-10-25T07:39:02.562Z,25.40
2022-10-25T07:41:30.861Z,25.40
2022-10-25T07:43:59.194Z,25.50
2022-10-25T07:46:27.536Z,25.50
2022-10-25T07:48:55.896Z,25.60
2022-10-25T07:51:24.064Z,25.60
2022-10-25T07:53:54.004Z,25.60
2022-10-25T07:56:23.699Z,25.70
2022-10-25T07:58:55.434Z,25.70
2022-10-25T08:01:26.499Z,25.80
2022-10-25T08:03:55.993Z,25.90
2022-10-25T08:06:25.594Z,26.00
2022-10-25T08:08:54.221Z,26.00
2022-10-25T08:11:22.379Z,26.10
2022-10-25T08:13:51.122Z,26.20
2022-10-25T08:16:19.510Z,26.20
2022-10-25T08:18:47.829Z,26.30
2022-10-25T08:21:16.147Z,26.40
2022-10-25T08:23:44.559Z,26.50
2022-10-25T08:26:13.057Z,26.60
2022-10-25T08:28:41.463Z,26.60
2022-10-25T08:31:10.009Z,26.70
2022-10-25T08:33:38.666Z,26.70
2022-10-25T08:36:07.559Z,26.70
2022-10-25T08:38:39.063Z,26.70
2022-10-25T08:42:00.112Z,26.80
2022-10-25T08:44:50.215Z,26.90
2022-10-25T08:47:29.859Z,27.00
2022-10-25T08:50:17.180Z,27.00
2022-10-25T08:52:52.774Z,27.20
2022-10-25T08:55:29.223Z,27.20
2022-10-25T08:57:58.067Z,27.30
2022-10-25T09:00:30.810Z,27.40
2022-10-25T09:03:01.351Z,27.40
2022-10-25T09:05:32.718Z,27.50
2022-10-25T09:08:08.177Z,27.50
2022-10-25T09:10:46.027Z,27.60
2022-10-25T09:13:53.714Z,27.70
2022-10-25T09:16:34.013Z,27.80
2022-10-25T09:19:10.074Z,27.90
2022-10-25T09:21:48.871Z,27.90
2022-10-25T09:24:43.095Z,27.90
2022-10-25T09:27:41.756Z,27.80
2022-10-25T09:30:14.661Z,27.90
2022-10-25T09:32:53.087Z,27.90
2022-10-25T09:35:49.692Z,28.00
2022-10-25T09:38:28.607Z,28.00
2022-10-25T09:41:12.378Z,28.00
2022-10-25T09:43:55.601Z,28.20
2022-10-25T09:46:37.544Z,28.30
2022-10-25T09:49:14.799Z,28.20
2022-10-25T09:51:51.816Z,28.30
2022-10-25T09:54:48.409Z,28.30
2022-10-25T09:57:16.947Z,28.40
2022-10-25T09:59:51.281Z,28.40
2022-10-25T10:02:29.695Z,28.50
2022-10-25T10:04:58.011Z,28.60
2022-10-25T10:07:32.405Z,28.70
2022-10-25T10:10:04.561Z,28.70
2022-10-25T10:12:44.845Z,28.70
2022-10-25T10:15:26.447Z,28.70
2022-10-25T10:18:24.365Z,28.80
2022-10-25T10:21:06.028Z,28.80
2022-10-25T10:23:37.586Z,28.80
2022-10-25T10:26:56.561Z,28.80
2022-10-25T10:29:31.897Z,28.80
2022-10-25T10:32:22.433Z,28.70
2022-10-25T10:34:58.354Z,28.70
2022-10-25T10:37:31.243Z,28.70
2022-10-25T10:40:09.536Z,28.80
2022-10-25T10:42:39.682Z,28.80
2022-10-25T10:45:08.349Z,28.90
2022-10-25T10:47:52.161Z,29.00
2022-10-25T10:50:23.596Z,29.00
2022-10-25T10:53:02.913Z,29.00
2022-10-25T10:55:31.415Z,29.10
2022-10-25T10:58:18.451Z,29.10
2022-10-25T11:00:53.794Z,29.30
2022-10-25T11:04:00.205Z,29.40
2022-10-25T11:06:36.125Z,29.50
2022-10-25T11:09:22.641Z,29.50
2022-10-25T11:12:13.844Z,29.50
2022-10-25T11:14:42.291Z,29.50
2022-10-25T11:17:19.903Z,29.60
2022-10-25T11:20:21.859Z,29.70
2022-10-25T11:23:31.953Z,29.60
2022-10-25T11:26:25.143Z,29.60
2022-10-25T11:29:15.869Z,29.60
2022-10-25T11:32:51.956Z,29.60
2022-10-25T11:35:32.146Z,29.60
2022-10-25T11:38:16.020Z,29.60
2022-10-25T11:41:03.236Z,29.60
2022-10-25T11:44:09.207Z,29.60
2022-10-25T11:46:52.570Z,29.70
2022-10-25T11:49:29.623Z,29.70
2022-10-25T11:52:33.328Z,29.80
2022-10-25T11:55:20.109Z,29.90
2022-10-25T11:58:14.193Z,29.90
2022-10-25T12:01:05.318Z,29.90
2022-10-25T12:04:10.830Z,29.90
2022-10-25T12:07:00.043Z,29.80
2022-10-25T12:09:46.982Z,29.70
2022-10-25T12:12:20.214Z,29.80
2022-10-25T12:14:59.552Z,29.80
2022-10-25T12:17:34.799Z,29.90
2022-10-25T12:20:12.142Z,29.90
2022-10-25T12:22:47.873Z,29.80
2022-10-25T12:25:25.748Z,29.70
2022-10-25T12:28:13.970Z,29.70
2022-10-25T12:30:44.539Z,29.60
2022-10-25T12:33:40.362Z,29.60
2022-10-25T12:36:20.397Z,29.60
2022-10-25T12:38:48.644Z,29.60
2022-10-25T12:41:20.952Z,29.90
2022-10-25T12:44:27.961Z,30.00
2022-10-25T12:47:13.271Z,30.20
2022-10-25T12:50:09.592Z,30.10
2022-10-25T12:53:01.674Z,30.00
2022-10-25T12:55:33.323Z,29.90
2022-10-25T12:58:09.548Z,30.10
2022-10-25T13:01:22.300Z,30.40
2022-10-25T13:04:23.156Z,30.70
2022-10-25T13:06:52.602Z,30.80
2022-10-25T13:09:26.939Z,30.80
2022-10-25T13:12:03.476Z,30.60
2022-10-25T13:14:36.577Z,30.50
2022-10-25T13:17:20.087Z,30.50
2022-10-25T13:19:54.593Z,30.50
2022-10-25T13:22:31.537Z,30.60
2022-10-25T13:25:02.989Z,30.80
2022-10-25T13:27:33.517Z,31.00
2022-10-25T13:30:23.552Z,31.00
2022-10-25T13:33:19.375Z,31.10
2022-10-25T13:35:51.110Z,31.10
2022-10-25T13:38:26.325Z,31.20
2022-10-25T13:41:14.226Z,31.20
2022-10-25T13:44:03.043Z,31.20
2022-10-25T13:46:35.011Z,31.20
2022-10-25T13:49:32.790Z,31.20
2022-10-25T13:52:03.568Z,31.40
2022-10-25T13:54:56.901Z,31.50
2022-10-25T13:57:54.358Z,31.60
2022-10-25T14:00:41.754Z,31.50
2022-10-25T14:03:10.112Z,31.60
2022-10-25T14:05:54.980Z,31.70
2022-10-25T14:08:45.471Z,31.70
2022-10-25T14:11:48.394Z,31.60
2022-10-25T14:14:29.428Z,31.50
2022-10-25T14:17:25.111Z,31.30
2022-10-25T14:20:03.015Z,31.10
2022-10-25T14:23:02.963Z,31.40
2022-10-25T14:25:40.036Z,31.60
2022-10-25T14:28:27.373Z,31.60
2022-10-25T14:31:06.352Z,31.70
2022-10-25T14:33:49.670Z,31.60
2022-10-25T14:36:30.407Z,31.40
2022-10-25T14:39:17.619Z,31.30
2022-10-25T14:42:00.578Z,31.00
2022-10-25T14:44:33.379Z,31.20
2022-10-25T14:47:01.813Z,31.20
2022-10-25T14:49:30.473Z,31.20
2022-10-25T14:52:03.697Z,31.10
2022-10-25T14:54:35.320Z,31.30
2022-10-25T14:57:09.018Z,31.50
2022-10-25T14:59:43.564Z,31.40
2022-10-25T15:02:24.096Z,31.70
2022-10-25T15:04:55.351Z,31.90
2022-10-25T15:07:28.908Z,32.00
2022-10-25T15:10:01.699Z,32.10
2022-10-25T15:12:36.028Z,32.40
2022-10-25T15:15:33.832Z,32.40
2022-10-25T15:18:02.512Z,32.40
2022-10-25T15:20:33.804Z,32.50
2022-10-25T15:23:05.767Z,32.60
2022-10-25T15:25:39.223Z,32.70
2022-10-25T15:28:18.745Z,32.80
2022-10-25T15:31:05.396Z,33.00
2022-10-25T15:33:35.276Z,32.80
2022-10-25T15:36:20.638Z,32.80
2022-10-25T15:39:07.074Z,33.00
2022-10-25T15:41:39.180Z,32.80
2022-10-25T15:44:10.699Z,33.20
2022-10-25T15:46:39.386Z,33.70
2022-10-25T15:49:12.143Z,34.20
2022-10-25T15:51:43.524Z,34.60
2022-10-25T15:54:23.358Z,34.40
2022-10-25T15:56:52.227Z,34.30
2022-10-25T15:59:20.638Z,34.00
2022-10-25T16:01:52.654Z,34.00
2022-10-25T16:04:23.969Z,34.30
2022-10-25T16:06:52.453Z,34.40
2022-10-25T16:09:20.626Z,34.90
2022-10-25T16:11:55.452Z,35.00
2022-10-25T16:14:27.485Z,35.10
2022-10-25T16:16:59.196Z,35.40
2022-10-25T16:19:27.568Z,35.20
2022-10-25T16:21:58.009Z,34.30
2022-10-25T16:24:29.502Z,33.50
2022-10-25T16:26:58.135Z,32.80
2022-10-25T16:29:32.960Z,32.10
2022-10-25T16:32:04.633Z,32.50
2022-10-25T16:34:40.549Z,32.90
2022-10-25T16:37:12.086Z,33.30
2022-10-25T16:39:40.620Z,34.20
2022-10-25T16:42:34.287Z,34.70
2022-10-25T16:45:13.943Z,35.20
2022-10-25T16:47:43.838Z,35.40
2022-10-25T16:50:22.638Z,35.50
2022-10-25T16:52:58.777Z,35.50
2022-10-25T16:55:28.520Z,35.40
2022-10-25T16:57:57.633Z,35.10
2022-10-25T17:00:27.363Z,34.80
2022-10-25T17:02:55.815Z,34.60
2022-10-25T17:05:26.869Z,34.20
2022-10-25T17:07:57.853Z,33.90
2022-10-25T17:10:26.341Z,33.50
2022-10-25T17:12:56.702Z,33.20
2022-10-25T17:15:25.172Z,32.90
2022-10-25T17:17:53.230Z,32.70
2022-10-25T17:20:21.571Z,32.50
2022-10-25T17:22:49.791Z,32.20
2022-10-25T17:25:18.336Z,32.00
2022-10-25T17:27:50.691Z,31.90
2022-10-25T17:30:19.531Z,31.60
2022-10-25T17:32:47.967Z,31.40
2022-10-25T17:35:16.293Z,31.30
2022-10-25T17:37:44.587Z,31.10
2022-10-25T17:40:13.487Z,31.00
2022-10-25T17:42:41.821Z,30.90
2022-10-25T17:45:10.630Z,30.90
2022-10-25T17:47:39.178Z,30.80
2022-10-25T17:50:07.936Z,30.70
2022-10-25T17:52:36.193Z,30.50
2022-10-25T17:55:04.939Z,30.40
2022-10-25T17:57:34.468Z,30.10
2022-10-25T18:00:02.858Z,29.90
2022-10-25T18:02:40.396Z,29.90
2022-10-25T18:05:19.838Z,29.80
2022-10-25T18:07:49.303Z,29.60
2022-10-25T18:10:17.847Z,29.50
2022-10-25T18:12:46.364Z,29.40
2022-10-25T18:15:14.961Z,29.30
2022-10-25T18:17:43.254Z,29.20
2022-10-25T18:20:11.802Z,29.20
2022-10-25T18:22:40.114Z,29.10
2022-10-25T18:25:08.690Z,28.90
2022-10-25T18:27:36.936Z,28.90
2022-10-25T18:30:05.817Z,28.80
2022-10-25T18:32:36.238Z,28.80
2022-10-25T18:35:04.816Z,28.70
2022-10-25T18:37:33.200Z,28.60
2022-10-25T18:40:01.414Z,28.60
2022-10-25T18:42:29.633Z,28.50
2022-10-25T18:44:57.942Z,28.50
2022-10-25T18:47:26.024Z,28.50
2022-10-25T18:49:54.196Z,28.40
2022-10-25T18:52:22.481Z,28.40
2022-10-25T18:54:50.877Z,28.40
2022-10-25T18:57:19.278Z,28.30
2022-10-25T18:59:47.360Z,28.30
2022-10-25T19:02:15.682Z,28.30
2022-10-25T19:04:44.216Z,28.30
2022-10-25T19:07:12.221Z,28.20
2022-10-25T19:09:40.415Z,28.20
2022-10-25T19:12:08.851Z,28.20
2022-10-25T19:14:36.895Z,28.20
2022-10-25T19:17:05.215Z,28.10
2022-10-25T19:19:33.545Z,28.20
2022-10-25T19:22:01.701Z,28.10
2022-10-25T19:24:29.921Z,28.10
2022-10-25T19:26:58.309Z,28.00
2022-10-25T19:29:26.619Z,28.10
2022-10-25T19:31:54.977Z,28.00
2022-10-25T19:34:23.072Z,28.10
2022-10-25T19:36:51.405Z,28.00
2022-10-25T19:39:19.595Z,28.00
2022-10-25T19:41:47.783Z,28.00
2022-10-25T19:44:16.047Z,28.00
2022-10-25T19:46:44.229Z,28.00
2022-10-25T19:49:12.736Z,28.00
2022-10-25T19:51:41.042Z,27.90
2022-10-25T19:54:09.904Z,27.90
2022-10-25T19:56:38.572Z,27.90
2022-10-25T19:59:12.452Z,27.90
2022-10-25T20:01:41.023Z,27.90
2022-10-25T20:04:09.189Z,27.80
2022-10-25T20:06:37.565Z,27.80
2022-10-25T20:09:06.052Z,27.80
2022-10-25T20:11:34.597Z,27.80
2022-10-25T20:14:03.862Z,27.80
2022-10-25T20:16:32.716Z,27.80
2022-10-25T20:19:02.254Z,27.80
2022-10-25T20:21:33.636Z,27.90
2022-10-25T20:24:05.184Z,27.90
2022-10-25T20:26:36.978Z,27.90
2022-10-25T20:29:08.084Z,27.90
2022-10-25T20:31:36.374Z,27.90
2022-10-25T20:34:05.571Z,27.80
2022-10-25T20:36:33.992Z,27.80
2022-10-25T20:39:04.900Z,27.90
2022-10-25T20:41:36.083Z,27.90
2022-10-25T20:44:04.816Z,27.90
2022-10-25T20:46:34.321Z,28.00
2022-10-25T20:49:04.286Z,28.00
2022-10-25T20:51:32.901Z,28.00
2022-10-25T20:54:01.100Z,28.00
2022-10-25T20:56:29.236Z,28.00
2022-10-25T20:58:57.596Z,28.00
2022-10-25T21:01:25.952Z,28.00
2022-10-25T21:03:54.319Z,28.00
2022-10-25T21:06:22.744Z,28.00
2022-10-25T21:08:51.091Z,28.00
2022-10-25T21:11:19.638Z,27.90
2022-10-25T21:13:47.861Z,27.90
2022-10-25T21:16:17.782Z,28.00
2022-10-25T21:18:46.324Z,28.00
2022-10-25T21:21:20.662Z,27.90
2022-10-25T21:23:49.434Z,27.90
2022-10-25T21:26:17.652Z,27.90
2022-10-25T21:28:45.751Z,27.90
2022-10-25T21:31:15.869Z,27.90
2022-10-25T21:33:50.127Z,27.80
2022-10-25T21:36:20.783Z,27.80
2022-10-25T21:38:49.343Z,27.80
2022-10-25T21:41:23.398Z,27.70
2022-10-25T21:43:51.828Z,27.70
2022-10-25T21:46:22.777Z,27.70
2022-10-25T21:48:51.486Z,27.70
2022-10-25T21:51:21.082Z,27.70
2022-10-25T21:53:49.719Z,27.70
2022-10-25T21:56:20.600Z,27.70
2022-10-25T21:58:49.683Z,27.70
2022-10-25T22:01:24.092Z,27.70
2022-10-25T22:03:53.178Z,27.70
2022-10-25T22:06:23.370Z,27.70
2022-10-25T22:08:53.459Z,27.70
2022-10-25T22:11:27.580Z,27.70
2022-10-25T22:13:58.600Z,27.70
2022-10-25T22:16:27.972Z,27.70
2022-10-25T22:19:06.584Z,27.70
2022-10-25T22:21:39.239Z,27.70
2022-10-25T22:24:09.695Z,27.70
2022-10-25T22:26:40.878Z,27.70
2022-10-25T22:29:12.070Z,27.70
2022-10-25T22:31:40.763Z,27.70
2022-10-25T22:34:09.953Z,27.70
2022-10-25T22:36:41.133Z,27.70
2022-10-25T22:39:09.852Z,27.70
2022-10-25T22:41:38.180Z,27.70
2022-10-25T22:44:06.780Z,27.70
2022-10-25T22:46:36.589Z,27.70
2022-10-25T22:49:09.816Z,27.70
2022-10-25T22:51:39.056Z,27.70
2022-10-25T22:54:07.918Z,27.70
2022-10-25T22:56:36.539Z,27.60
2022-10-25T22:59:06.537Z,27.60
2022-10-25T23:01:36.774Z,27.60
2022-10-25T23:04:07.684Z,27.60
2022-10-25T23:06:39.012Z,27.60
2022-10-25T23:09:09.561Z,27.60
2022-10-25T23:11:39.449Z,27.50
2022-10-25T23:14:08.516Z,27.50
2022-10-25T23:16:38.224Z,27.40
2022-10-25T23:19:06.354Z,27.50
2022-10-25T23:21:34.600Z,27.40
2022-10-25T23:24:03.181Z,27.50
2022-10-25T23:26:33.495Z,27.40
2022-10-25T23:29:02.077Z,27.40
2022-10-25T23:31:31.157Z,27.40
2022-10-25T23:34:00.861Z,27.40
2022-10-25T23:36:31.961Z,27.50
2022-10-25T23:39:00.304Z,27.50
2022-10-25T23:41:28.565Z,27.50
2022-10-25T23:43:57.032Z,27.50
2022-10-25T23:46:25.305Z,27.50
2022-10-25T23:48:53.483Z,27.50
2022-10-25T23:51:21.759Z,27.40
2022-10-25T23:53:49.879Z,27.40
2022-10-25T23:56:18.268Z,27.40
2022-10-25T23:58:46.548Z,27.40
